Time;durP1;ratioP1;P1;durP2;ratioP2;P2;SDS_P1;SDS_P2;PMS_P1;PMS_P2;Temp;Humidity;BMP_temperature;BMP_pressure;BME280_temperature;BME280_humidity;BME280_pressure;Samples;Min_cycle;Max_cycle;Signal;HPM_P1;HPM_P2
2023/12/23 00:02:06;;;;;;;2.60;2.40;;;;;;;9.84;60.22;93229.72;5051399;28;20187;-78
2023/12/23 00:04:33;;;;;;;2.60;2.40;;;;;;;9.83;60.53;93227.34;5052357;28;20183;-76
2023/12/23 00:07:00;;;;;;;3.03;2.73;;;;;;;9.82;60.04;93238.53;5040722;28;20194;-77
2023/12/23 00:09:27;;;;;;;3.23;2.93;;;;;;;9.55;60.36;93184.44;5030816;28;20571;-77
2023/12/23 00:11:54;;;;;;;3.07;2.80;;;;;;;9.80;60.56;93215.69;5032696;28;20297;-77
2023/12/23 00:14:22;;;;;;;3.23;2.83;;;;;;;9.79;60.34;93203.91;5032218;28;20577;-76
2023/12/23 00:16:49;;;;;;;4.33;2.87;;;;;;;9.78;60.70;93187.00;5031710;28;20222;-75
2023/12/23 00:19:15;;;;;;;3.30;3.00;;;;;;;9.76;60.55;93182.09;5032136;28;20301;-75
2023/12/23 00:21:42;;;;;;;3.00;2.63;;;;;;;9.74;60.72;93178.88;5032214;28;20211;-76
2023/12/23 00:24:09;;;;;;;4.30;3.10;;;;;;;9.72;60.84;93187.69;5038846;28;20199;-77
2023/12/23 00:26:36;;;;;;;3.50;3.03;;;;;;;9.67;60.99;93170.34;5053803;28;20179;-77
2023/12/23 00:29:02;;;;;;;4.87;3.03;;;;;;;9.54;61.09;93154.78;5054390;28;20206;-77
2023/12/23 00:31:30;;;;;;;3.97;3.13;;;;;;;9.57;61.05;93192.72;5051585;28;20195;-76
2023/12/23 00:33:57;;;;;;;4.80;3.40;;;;;;;9.52;61.25;93195.78;5051694;28;20207;-78
2023/12/23 00:36:24;;;;;;;6.13;3.50;;;;;;;9.49;61.26;93185.09;5051067;28;20222;-77
2023/12/23 00:38:51;;;;;;;4.10;3.70;;;;;;;9.25;61.40;93153.69;5051225;28;20187;-77
2023/12/23 00:41:18;;;;;;;3.73;3.37;;;;;;;9.44;61.34;93198.38;5051261;28;20195;-77
2023/12/23 00:43:44;;;;;;;3.67;3.10;;;;;;;9.27;61.72;93174.69;5051880;28;20675;-76
2023/12/23 00:46:11;;;;;;;3.90;3.33;;;;;;;9.39;61.56;93182.78;5051502;28;20573;-78
2023/12/23 00:48:39;;;;;;;5.00;3.13;;;;;;;9.29;61.64;93159.25;5051644;28;20187;-78
2023/12/23 00:51:06;;;;;;;4.93;3.10;;;;;;;9.36;61.69;93182.31;5051440;28;20183;-76
2023/12/23 00:53:32;;;;;;;5.97;3.33;;;;;;;9.22;61.99;93171.06;5044172;28;20215;-74
2023/12/23 00:55:59;;;;;;;3.93;3.40;;;;;;;9.30;61.74;93194.00;5031206;28;20712;-78
2023/12/23 00:58:26;;;;;;;3.50;3.20;;;;;;;8.98;61.83;93143.91;5031240;28;20196;-77
2023/12/23 01:00:53;;;;;;;3.87;3.27;;;;;;;9.18;61.95;93157.06;5031556;28;20255;-75
2023/12/23 01:03:20;;;;;;;3.57;3.27;;;;;;;9.26;61.75;93169.78;5047408;28;20210;-77
2023/12/23 01:05:48;;;;;;;7.03;3.80;;;;;;;9.25;61.98;93153.69;5049638;28;20289;-77
2023/12/23 01:08:15;;;;;;;4.63;3.47;;;;;;;9.26;62.00;93139.97;5036376;28;20191;-76
2023/12/23 01:10:42;;;;;;;4.50;3.23;;;;;;;9.28;61.94;93130.41;5031542;28;20188;-78
2023/12/23 01:13:09;;;;;;;3.73;3.40;;;;;;;9.29;61.82;93134.53;5030805;28;20184;-76
2023/12/23 01:15:35;;;;;;;3.53;3.10;;;;;;;9.32;61.85;93135.13;5031045;28;20198;-76
2023/12/23 01:18:02;;;;;;;3.10;2.83;;;;;;;9.35;61.98;93127.94;5038115;28;20712;-75
2023/12/23 01:20:29;;;;;;;3.53;3.07;;;;;;;9.30;61.82;93110.59;5030828;28;20254;-75
2023/12/23 01:22:57;;;;;;;3.33;2.97;;;;;;;9.35;61.81;93115.19;5034374;28;20191;-76
2023/12/23 01:25:24;;;;;;;3.50;3.20;;;;;;;9.36;61.61;93113.44;5050370;28;20347;-76
2023/12/23 01:27:51;;;;;;;3.60;3.07;;;;;;;9.32;61.82;93077.25;5045353;28;20191;-76
2023/12/23 01:30:18;;;;;;;4.10;3.33;;;;;;;9.28;61.87;93073.47;5030231;28;20192;-76
2023/12/23 01:32:44;;;;;;;3.73;2.97;;;;;;;9.21;61.97;93070.03;5030798;28;20204;-74
2023/12/23 01:35:11;;;;;;;5.10;3.60;;;;;;;9.33;61.96;93083.19;5030283;28;20696;-75
2023/12/23 01:37:38;;;;;;;4.53;3.40;;;;;;;9.31;61.96;93068.03;5049467;28;20226;-76
2023/12/23 01:40:07;;;;;;;3.57;3.13;;;;;;;9.16;62.08;93032.28;5040413;28;20196;-75
2023/12/23 01:42:34;;;;;;;5.33;3.57;;;;;;;9.28;62.38;93088.75;5030569;28;20449;-75
2023/12/23 01:45:01;;;;;;;3.73;3.37;;;;;;;9.27;62.00;93056.59;5031328;28;20246;-75
2023/12/23 01:47:28;;;;;;;5.00;3.83;;;;;;;9.26;62.30;93007.34;5031904;28;20221;-74
2023/12/23 01:49:56;;;;;;;4.17;3.50;;;;;;;9.25;62.26;93033.81;5044791;28;20205;-73
2023/12/23 01:52:23;;;;;;;4.37;3.80;;;;;;;9.26;62.21;93037.94;5050063;28;20218;-75
2023/12/23 01:54:50;;;;;;;5.07;3.30;;;;;;;9.30;62.13;93051.16;5050515;28;20206;-75
2023/12/23 01:57:19;;;;;;;4.77;3.83;;;;;;;9.33;62.10;93035.50;5050311;28;20214;-74
2023/12/23 01:59:46;;;;;;;4.87;3.53;;;;;;;9.22;62.17;93005.28;5062500;28;20210;-76
2023/12/23 02:02:13;;;;;;;4.63;3.50;;;;;;;9.37;62.16;93016.34;5063249;28;20190;-77
2023/12/23 02:04:39;;;;;;;5.47;3.20;;;;;;;9.40;62.00;92977.72;5056067;28;20191;-76
2023/12/23 02:07:06;;;;;;;3.40;3.10;;;;;;;9.45;61.82;93000.16;5034270;28;20611;-76
2023/12/23 02:09:33;;;;;;;3.60;2.80;;;;;;;9.51;61.79;92963.78;5030246;28;20249;-76
2023/12/23 02:12:11;;;;;;;3.30;3.00;;;;;;;9.29;61.71;92948.34;5039049;28;20194;-77
2023/12/23 02:14:43;;;;;;;3.67;3.00;;;;;;;9.48;61.43;92990.41;5029744;28;20207;-77
2023/12/23 02:17:10;;;;;;;3.40;3.10;;;;;;;9.47;61.36;92940.34;5029791;28;20581;-76
2023/12/23 02:19:37;;;;;;;3.43;2.57;;;;;;;9.73;61.22;92990.97;5029518;28;20720;-75
2023/12/23 02:22:05;;;;;;;3.07;2.37;;;;;;;9.70;61.14;92988.78;5030695;28;20188;-75
2023/12/23 02:24:32;;;;;;;4.57;2.57;;;;;;;9.85;60.86;93031.41;5029544;28;20203;-73
2023/12/23 02:27:06;;;;;;;2.33;2.17;;;;;;;9.91;60.81;92994.97;5029646;28;20199;-75
2023/12/23 02:29:33;;;;;;;2.40;2.20;;;;;;;9.95;60.65;93011.50;5029870;28;20199;-75
2023/12/23 02:32:02;;;;;;;2.10;1.90;;;;;;;10.00;60.61;92976.03;5028974;28;20195;-74
2023/12/23 02:34:30;;;;;;;2.60;2.40;;;;;;;10.02;60.58;92977.44;5029073;28;20200;-75
2023/12/23 02:36:57;;;;;;;2.20;2.10;;;;;;;10.07;60.49;92953.16;5029116;28;20223;-75
2023/12/23 02:39:25;;;;;;;2.10;2.00;;;;;;;10.11;60.37;92985.81;5040194;28;20195;-74
2023/12/23 02:41:51;;;;;;;1.83;1.73;;;;;;;10.14;60.26;92971.88;5048707;28;20203;-75
2023/12/23 02:44:18;;;;;;;1.90;1.80;;;;;;;10.18;60.34;92962.91;5049706;28;20187;-74
2023/12/23 02:46:45;;;;;;;2.07;1.97;;;;;;;9.90;59.91;92874.19;5048907;28;20191;-75
2023/12/23 02:49:12;;;;;;;1.80;1.70;;;;;;;10.24;59.96;92978.34;5049235;28;21028;-75
2023/12/23 02:51:38;;;;;;;1.77;1.67;;;;;;;10.28;59.84;92943.03;5049290;28;20613;-75
2023/12/23 02:54:05;;;;;;;1.90;1.70;;;;;;;10.32;59.64;92977.47;5049417;28;20191;-75
2023/12/23 02:56:33;;;;;;;1.80;1.70;;;;;;;10.35;59.53;92897.09;5035632;28;20215;-77
2023/12/23 02:59:00;;;;;;;1.90;1.80;;;;;;;10.15;59.37;92951.28;5034776;28;20190;-77
2023/12/23 03:01:27;;;;;;;1.93;1.83;;;;;;;10.24;59.36;92959.66;5049162;28;20183;-76
2023/12/23 03:03:54;;;;;;;2.40;2.20;;;;;;;10.41;59.55;92986.63;5049155;28;20202;-75
2023/12/23 03:06:22;;;;;;;2.93;1.87;;;;;;;10.41;59.04;92980.72;5049123;28;20282;-78
2023/12/23 03:08:48;;;;;;;1.90;1.80;;;;;;;10.52;59.09;92987.91;5048779;28;20252;-75
2023/12/23 03:11:15;;;;;;;2.00;1.90;;;;;;;10.55;58.94;93054.78;5049093;28;20199;-75
2023/12/23 03:13:43;;;;;;;1.80;1.70;;;;;;;10.55;58.65;93005.44;5037163;28;20723;-77
2023/12/23 03:16:17;;;;;;;2.10;1.80;;;;;;;10.16;59.00;92967.41;5029167;28;20203;-75
2023/12/23 03:18:44;;;;;;;2.00;1.90;;;;;;;10.38;59.07;93024.50;5028847;28;20265;-77
2023/12/23 03:21:11;;;;;;;2.10;2.00;;;;;;;10.09;59.44;92992.06;5029748;28;20633;-77
2023/12/23 03:23:38;;;;;;;1.80;1.70;;;;;;;10.13;59.22;93006.84;5029768;28;20692;-76
2023/12/23 03:26:05;;;;;;;2.47;2.27;;;;;;;10.10;59.76;93047.25;5029650;28;20191;-76
2023/12/23 03:28:31;;;;;;;2.13;1.93;;;;;;;10.11;59.61;93042.00;5030034;28;20191;-77
2023/12/23 03:30:59;;;;;;;4.57;2.20;;;;;;;9.95;59.98;93029.38;5030023;28;20187;-78
2023/12/23 03:33:26;;;;;;;2.40;2.20;;;;;;;9.97;60.09;93015.50;5029446;28;20218;-77
2023/12/23 03:35:53;;;;;;;2.10;1.90;;;;;;;9.79;60.31;92992.81;5029166;28;20608;-75
2023/12/23 03:38:21;;;;;;;1.90;1.80;;;;;;;9.82;60.59;93030.00;5029120;28;20697;-77
2023/12/23 03:40:48;;;;;;;2.53;2.03;;;;;;;9.73;60.67;93010.63;5029041;28;20192;-76
2023/12/23 03:43:15;;;;;;;2.37;2.00;;;;;;;9.66;60.88;93009.72;5030757;28;20199;-78
2023/12/23 03:45:42;;;;;;;2.03;1.93;;;;;;;9.59;61.06;93012.19;5032406;28;20580;-76
2023/12/23 03:48:10;;;;;;;1.90;1.80;;;;;;;9.53;61.17;93028.16;5032619;28;20656;-76
2023/12/23 03:50:37;;;;;;;2.27;2.17;;;;;;;9.23;61.43;92949.00;5032498;28;20211;-79
2023/12/23 03:53:04;;;;;;;2.63;2.40;;;;;;;9.25;61.46;92962.41;5032738;28;20188;-77
2023/12/23 03:55:32;;;;;;;2.43;2.23;;;;;;;9.38;61.57;93019.69;5032019;28;20180;-77
2023/12/23 03:57:59;;;;;;;7.07;2.37;;;;;;;9.28;61.60;92989.28;5032959;28;20409;-76
2023/12/23 04:00:26;;;;;;;3.33;2.00;;;;;;;9.29;61.75;92996.00;5032212;28;20199;-77
2023/12/23 04:02:53;;;;;;;2.93;2.30;;;;;;;9.25;61.95;93005.75;5032392;28;20191;-76
2023/12/23 04:05:22;;;;;;;2.37;2.17;;;;;;;8.89;62.11;92913.75;5036422;28;20191;-77
2023/12/23 04:07:49;;;;;;;2.60;2.40;;;;;;;9.18;61.96;92946.19;5052027;28;20286;-77
2023/12/23 04:10:16;;;;;;;2.30;2.10;;;;;;;9.24;61.78;92967.66;5051934;28;20671;-78
2023/12/23 04:12:43;;;;;;;4.47;2.10;;;;;;;9.27;61.91;92954.56;5034857;28;20696;-77
2023/12/23 04:15:10;;;;;;;2.60;2.37;;;;;;;9.33;61.65;92971.75;5032310;28;20192;-74
2023/12/23 04:17:38;;;;;;;2.37;2.03;;;;;;;9.39;61.33;92971.03;5031524;28;20618;-76
2023/12/23 04:20:06;;;;;;;2.03;1.90;;;;;;;9.44;61.42;92981.50;5032350;28;20191;-77
2023/12/23 04:22:35;;;;;;;2.07;1.97;;;;;;;9.50;61.20;92988.50;5031576;28;20202;-77
2023/12/23 04:25:03;;;;;;;1.90;1.80;;;;;;;9.56;61.03;92997.22;5032106;28;20203;-76
2023/12/23 04:27:31;;;;;;;1.97;1.70;;;;;;;9.62;60.93;93008.47;5031735;28;20294;-76
2023/12/23 04:29:57;;;;;;;1.90;1.80;;;;;;;9.70;60.82;93004.09;5032022;28;20203;-75
2023/12/23 04:32:24;;;;;;;1.70;1.60;;;;;;;9.76;60.67;92987.31;5050415;28;20199;-75
2023/12/23 04:34:51;;;;;;;1.90;1.80;;;;;;;9.32;60.48;92880.06;5051303;28;20191;-75
2023/12/23 04:37:18;;;;;;;2.70;1.90;;;;;;;9.89;60.41;92959.41;5031844;28;20231;-76
2023/12/23 04:39:46;;;;;;;1.93;1.80;;;;;;;9.95;60.01;92983.44;5033360;28;20269;-76
2023/12/23 04:42:13;;;;;;;1.70;1.60;;;;;;;9.76;59.90;92937.03;5044520;28;20206;-76
2023/12/23 04:44:39;;;;;;;2.20;2.00;;;;;;;9.93;59.78;92977.69;5062122;28;20632;-76
2023/12/23 04:47:06;;;;;;;1.60;1.50;;;;;;;10.08;59.94;92977.72;5058672;28;20195;-77
2023/12/23 04:49:33;;;;;;;1.87;1.77;;;;;;;10.12;59.83;92981.50;5052934;28;20691;-76
2023/12/23 04:52:00;;;;;;;3.67;2.10;;;;;;;10.11;60.06;92965.38;5033232;28;20180;-75
2023/12/23 04:54:26;;;;;;;2.20;2.00;;;;;;;10.05;59.60;92949.00;5031621;28;20195;-74
2023/12/23 04:56:54;;;;;;;1.80;1.70;;;;;;;10.25;59.53;92981.69;5031151;28;20211;-75
2023/12/23 04:59:21;;;;;;;3.13;1.80;;;;;;;10.29;59.49;93013.56;5031884;28;20645;-75
2023/12/23 05:01:48;;;;;;;1.80;1.70;;;;;;;10.20;59.36;92978.84;5031390;28;20612;-73
2023/12/23 05:04:15;;;;;;;1.90;1.80;;;;;;;10.36;59.40;93021.31;5031014;28;20696;-74
2023/12/23 05:06:41;;;;;;;1.77;1.67;;;;;;;10.10;59.43;93016.63;5030934;28;20196;-74
2023/12/23 05:09:08;;;;;;;2.00;1.87;;;;;;;10.44;58.87;93069.75;5030696;28;20192;-74
2023/12/23 05:11:35;;;;;;;2.10;2.00;;;;;;;10.49;58.84;93073.41;5030764;28;20661;-74
2023/12/23 05:14:03;;;;;;;1.80;1.70;;;;;;;10.51;58.69;93056.09;5030922;28;20664;-74
2023/12/23 05:16:30;;;;;;;1.60;1.60;;;;;;;10.51;58.78;93040.00;5043989;28;20179;-74
2023/12/23 05:18:57;;;;;;;1.90;1.70;;;;;;;10.29;58.84;93034.00;5050362;28;20463;-74
2023/12/23 05:21:23;;;;;;;3.20;1.70;;;;;;;10.41;58.87;93065.03;5034025;28;20648;-74
2023/12/23 05:23:50;;;;;;;1.97;1.73;;;;;;;10.25;58.78;93031.00;5050680;28;20187;-74
2023/12/23 05:26:18;;;;;;;1.90;1.80;;;;;;;9.92;58.86;93017.75;5050284;28;20195;-73
2023/12/23 05:28:45;;;;;;;2.20;2.00;;;;;;;10.15;58.93;93040.69;5050475;28;20191;-74
2023/12/23 05:31:13;;;;;;;2.07;1.93;;;;;;;10.26;59.19;93059.91;5048446;28;20193;-75
2023/12/23 05:33:40;;;;;;;1.83;1.73;;;;;;;10.24;59.34;93070.31;5050497;28;20241;-73
2023/12/23 05:36:08;;;;;;;2.03;1.77;;;;;;;10.18;59.19;93039.53;5031312;28;20298;-73
2023/12/23 05:38:35;;;;;;;1.70;1.60;;;;;;;10.04;59.03;93018.13;5030234;28;20219;-72
2023/12/23 05:41:02;;;;;;;2.40;1.90;;;;;;;10.33;59.25;93057.44;5029976;28;20188;-74
2023/12/23 05:43:29;;;;;;;2.37;1.87;;;;;;;10.26;59.15;93034.34;5030303;28;20827;-74
2023/12/23 05:45:55;;;;;;;2.03;1.83;;;;;;;10.31;59.29;93029.50;5029849;28;20203;-75
2023/12/23 05:48:23;;;;;;;4.23;1.87;;;;;;;10.19;58.96;93005.34;5030100;28;20188;-76
2023/12/23 05:50:50;;;;;;;2.10;1.87;;;;;;;10.31;58.97;93019.28;5048169;28;20191;-73
2023/12/23 05:53:17;;;;;;;1.77;1.67;;;;;;;10.20;58.97;92994.19;5049964;28;20608;-75
2023/12/23 05:55:44;;;;;;;2.17;1.67;;;;;;;10.52;58.85;93037.25;5049862;28;20191;-75
2023/12/23 05:58:11;;;;;;;1.97;1.87;;;;;;;10.36;58.93;93014.44;5049806;28;20233;-74
2023/12/23 06:00:37;;;;;;;1.63;1.50;;;;;;;10.42;58.91;93035.94;5049127;28;20191;-73
2023/12/23 06:03:05;;;;;;;1.77;1.67;;;;;;;10.47;58.50;93041.31;5049902;28;20179;-75
2023/12/23 06:05:33;;;;;;;4.43;1.70;;;;;;;10.68;58.55;93056.72;5048002;28;20210;-75
2023/12/23 06:08:00;;;;;;;2.03;1.90;;;;;;;10.73;58.42;93054.41;5048741;28;20190;-74
2023/12/23 06:10:26;;;;;;;3.53;1.97;;;;;;;10.79;58.33;93060.56;5033682;28;20191;-74
2023/12/23 06:12:53;;;;;;;2.27;1.73;;;;;;;10.81;58.20;93050.97;5029917;28;20192;-75
2023/12/23 06:15:20;;;;;;;1.70;1.60;;;;;;;10.89;58.13;93070.53;5029723;28;20218;-73
2023/12/23 06:17:48;;;;;;;1.90;1.70;;;;;;;10.92;58.23;93068.38;5029104;28;20250;-75
2023/12/23 06:20:15;;;;;;;1.90;1.80;;;;;;;10.99;58.02;93073.59;5030841;28;20191;-74
2023/12/23 06:22:43;;;;;;;1.90;1.80;;;;;;;10.94;57.82;93065.66;5029485;28;20192;-75
2023/12/23 06:25:10;;;;;;;1.97;1.87;;;;;;;11.11;57.90;93076.47;5029901;28;20242;-75
2023/12/23 06:27:37;;;;;;;2.00;1.90;;;;;;;11.16;57.61;93064.72;5030106;28;20192;-74
2023/12/23 06:30:04;;;;;;;2.00;1.87;;;;;;;11.20;57.41;93045.47;5032137;28;20180;-74
2023/12/23 06:32:31;;;;;;;2.77;1.80;;;;;;;11.08;57.64;93046.91;5050663;28;20228;-76
2023/12/23 06:34:57;;;;;;;1.73;1.63;;;;;;;11.15;57.63;93036.78;5049510;28;20183;-75
2023/12/23 06:37:24;;;;;;;2.87;1.80;;;;;;;10.21;57.25;92871.38;5032464;28;20223;-76
2023/12/23 06:39:52;;;;;;;2.97;1.83;;;;;;;11.18;57.37;93021.03;5029458;28;20218;-76
2023/12/23 06:42:19;;;;;;;1.93;1.73;;;;;;;11.48;57.32;93042.19;5029647;28;20187;-76
2023/12/23 06:44:46;;;;;;;1.70;1.60;;;;;;;11.54;57.21;93013.31;5029316;28;20661;-76
2023/12/23 06:47:13;;;;;;;2.40;1.80;;;;;;;11.15;56.89;92971.03;5029734;28;20203;-73
2023/12/23 06:49:42;;;;;;;1.50;1.40;;;;;;;11.53;56.98;93045.00;5031178;28;20207;-78
2023/12/23 06:52:08;;;;;;;2.30;1.80;;;;;;;11.75;56.79;93074.72;5048763;28;20296;-75
2023/12/23 06:54:35;;;;;;;1.80;1.70;;;;;;;11.70;56.62;93064.25;5049631;28;20198;-80
2023/12/23 06:57:04;;;;;;;1.73;1.63;;;;;;;11.91;56.64;93083.94;5047805;28;20183;-79
2023/12/23 06:59:31;;;;;;;1.60;1.50;;;;;;;12.00;56.59;93070.03;5035759;28;20228;-80
2023/12/23 07:01:57;;;;;;;2.57;1.80;;;;;;;12.08;56.45;93104.94;5027526;28;20202;-80
2023/12/23 07:04:24;;;;;;;1.70;1.60;;;;;;;12.15;56.59;93092.97;5027569;28;20202;-79
2023/12/23 07:06:51;;;;;;;1.97;1.77;;;;;;;12.15;56.41;93080.16;5027199;28;20191;-79
2023/12/23 07:09:18;;;;;;;1.67;1.57;;;;;;;12.28;56.37;93100.75;5027391;28;20211;-78
2023/12/23 07:11:44;;;;;;;3.97;1.90;;;;;;;11.86;56.24;93031.69;5046126;28;20618;-79
2023/12/23 07:14:13;;;;;;;3.47;2.30;;;;;;;12.40;56.39;93100.25;5029077;28;20206;-79
2023/12/23 07:16:42;;;;;;;3.27;1.80;;;;;;;12.45;56.32;93116.66;5036610;28;20552;-70
2023/12/23 07:19:09;;;;;;;2.20;2.00;;;;;;;12.51;56.06;93100.50;5049530;28;20241;-73
2023/12/23 07:21:36;;;;;;;2.50;1.97;;;;;;;12.57;56.07;93101.53;5056125;28;20206;-77
2023/12/23 07:24:03;;;;;;;1.90;1.70;;;;;;;12.51;56.16;93084.31;5055396;28;20187;-69
2023/12/23 07:26:30;;;;;;;1.80;1.70;;;;;;;12.65;55.95;93111.66;5070699;28;20229;-75
2023/12/23 07:28:57;;;;;;;2.00;1.90;;;;;;;12.75;56.02;93114.66;5057479;28;20223;-70
2023/12/23 07:31:26;;;;;;;1.93;1.83;;;;;;;12.87;55.79;93122.59;5050583;28;20187;-75
2023/12/23 07:33:53;;;;;;;2.00;1.90;;;;;;;13.07;55.29;93122.69;5049244;28;20220;-71
2023/12/23 07:36:19;;;;;;;3.83;2.27;;;;;;;13.19;55.35;93131.41;5050075;28;20195;-77
2023/12/23 07:38:46;;;;;;;3.47;2.07;;;;;;;13.42;55.12;93127.75;5049574;28;20222;-73
2023/12/23 07:41:13;;;;;;;1.93;1.80;;;;;;;13.63;54.63;93140.47;5050705;28;20202;-69
2023/12/23 07:43:40;;;;;;;1.60;1.50;;;;;;;13.76;54.68;93135.34;5050112;28;20198;-74
2023/12/23 07:46:06;;;;;;;3.20;2.17;;;;;;;13.87;54.67;93146.06;5050110;28;20210;-72
2023/12/23 07:48:34;;;;;;;3.60;1.70;;;;;;;14.03;59.83;93125.09;5037375;28;20191;-76
2023/12/23 07:51:06;;;;;;;2.37;2.17;;;;;;;14.60;79.85;93117.78;5030823;28;20565;-79
2023/12/23 07:53:33;;;;;;;2.57;1.70;;;;;;;15.30;81.71;93134.19;5029888;28;20213;-72
2023/12/23 07:56:00;;;;;;;3.50;1.57;;;;;;;15.97;80.28;93144.97;5029911;28;20695;-79
2023/12/23 07:58:27;;;;;;;3.73;1.60;;;;;;;16.60;77.93;93150.03;5044212;28;20659;-74
2023/12/23 08:00:54;;;;;;;1.50;1.40;;;;;;;17.22;75.20;93142.28;5049611;28;20611;-71
2023/12/23 08:03:21;;;;;;;1.67;1.47;;;;;;;17.55;72.55;93155.59;5049156;28;20183;-73
2023/12/23 08:05:49;;;;;;;3.17;1.97;;;;;;;17.61;70.56;93184.97;5049914;28;20191;-72
2023/12/23 08:08:16;;;;;;;19.47;2.03;;;;;;;17.39;69.26;93160.59;5049526;28;20276;-74
2023/12/23 08:10:42;;;;;;;5.80;1.87;;;;;;;17.55;67.90;93183.25;5048600;28;20844;-74
2023/12/23 08:13:10;;;;;;;2.50;1.97;;;;;;;17.54;66.74;93195.41;5049391;28;20199;-75
2023/12/23 08:15:36;;;;;;;2.73;1.90;;;;;;;17.59;65.27;93186.19;5049803;28;20187;-76
2023/12/23 08:18:03;;;;;;;2.30;2.10;;;;;;;17.67;64.16;93193.66;5036543;28;21074;-76
2023/12/23 08:20:29;;;;;;;3.40;1.90;;;;;;;17.77;62.95;93207.66;5030735;28;20203;-77
2023/12/23 08:22:57;;;;;;;2.60;1.70;;;;;;;17.68;61.82;93210.75;5029326;28;20191;-71
2023/12/23 08:25:24;;;;;;;2.83;2.07;;;;;;;17.73;61.26;93236.72;5029267;28;20199;-74
2023/12/23 08:27:51;;;;;;;3.47;1.87;;;;;;;17.61;60.62;93215.97;5044121;28;20194;-74
2023/12/23 08:30:18;;;;;;;2.60;2.00;;;;;;;17.33;59.97;93202.78;5047769;28;20191;-76
2023/12/23 08:32:45;;;;;;;3.07;2.10;;;;;;;17.50;59.39;93268.41;5049180;28;20195;-72
2023/12/23 08:35:11;;;;;;;2.93;1.57;;;;;;;17.36;59.14;93266.94;5048941;28;20564;-73
2023/12/23 08:37:38;;;;;;;2.87;2.43;;;;;;;17.28;58.74;93301.63;5039323;28;20180;-75
2023/12/23 08:40:08;;;;;;;3.43;1.70;;;;;;;17.39;57.65;93321.59;5028993;28;20230;-78
2023/12/23 08:42:35;;;;;;;2.63;1.90;;;;;;;17.30;56.06;93328.81;5028745;28;20448;-77
2023/12/23 08:45:02;;;;;;;2.00;1.90;;;;;;;17.16;56.21;93342.06;5029371;28;20192;-73
2023/12/23 08:47:28;;;;;;;1.70;1.60;;;;;;;16.96;56.23;93326.72;5045323;28;20195;-76
2023/12/23 08:49:55;;;;;;;4.57;1.93;;;;;;;16.77;56.27;93336.19;5049443;28;20186;-72
2023/12/23 08:52:22;;;;;;;2.53;2.00;;;;;;;16.56;56.40;93350.19;5050359;28;20211;-75
2023/12/23 08:54:49;;;;;;;1.90;1.80;;;;;;;16.56;55.92;93366.44;5037890;28;20196;-75
2023/12/23 08:57:17;;;;;;;3.17;2.20;;;;;;;16.46;55.94;93373.84;5035362;28;20202;-77
2023/12/23 08:59:44;;;;;;;1.77;1.63;;;;;;;16.35;55.89;93400.28;5048102;28;20708;-77
2023/12/23 09:02:10;;;;;;;3.87;2.23;;;;;;;16.24;55.84;93403.53;5048269;28;20668;-75
2023/12/23 09:04:37;;;;;;;3.17;2.20;;;;;;;15.68;55.76;93365.41;5047340;28;20224;-76
2023/12/23 09:07:04;;;;;;;2.10;2.00;;;;;;;15.98;56.02;93428.38;5044117;28;20211;-77
2023/12/23 09:09:31;;;;;;;4.60;2.57;;;;;;;15.85;56.01;93425.03;5030968;28;20329;-78
2023/12/23 09:11:58;;;;;;;2.13;1.83;;;;;;;15.73;56.27;93405.03;5028185;28;20283;-77
2023/12/23 09:14:26;;;;;;;3.57;2.30;;;;;;;15.52;56.22;93395.69;5030945;28;20196;-74
2023/12/23 09:16:53;;;;;;;2.20;2.07;;;;;;;15.60;56.33;93430.78;5028857;28;20281;-77
2023/12/23 09:19:21;;;;;;;2.57;2.37;;;;;;;15.31;56.33;93395.91;5028712;28;20239;-79
2023/12/23 09:21:48;;;;;;;3.17;2.53;;;;;;;15.46;56.26;93416.34;5028277;28;20622;-77
2023/12/23 09:24:15;;;;;;;2.93;2.50;;;;;;;15.06;56.35;93369.94;5042253;28;20567;-77
2023/12/23 09:26:43;;;;;;;2.77;2.23;;;;;;;15.37;56.42;93449.22;5051200;28;20207;-75
2023/12/23 09:29:09;;;;;;;4.17;2.33;;;;;;;15.29;56.43;93475.97;5048687;28;20225;-77
2023/12/23 09:31:38;;;;;;;3.00;2.10;;;;;;;15.01;56.56;93434.91;5053819;28;20187;-78
2023/12/23 09:34:04;;;;;;;4.00;2.13;;;;;;;15.04;56.97;93462.03;5048159;28;20291;-77
2023/12/23 09:36:31;;;;;;;2.07;1.93;;;;;;;14.71;56.96;93425.94;5040707;28;20204;-78
2023/12/23 09:38:58;;;;;;;4.50;2.70;;;;;;;14.86;57.14;93470.31;5028513;28;20215;-77
2023/12/23 09:41:25;;;;;;;2.80;2.43;;;;;;;14.79;57.04;93482.38;5028395;28;20203;-78
2023/12/23 09:43:53;;;;;;;2.63;2.40;;;;;;;14.70;57.23;93486.09;5043366;28;20265;-78
2023/12/23 09:46:20;;;;;;;3.83;2.33;;;;;;;14.58;57.29;93521.06;5036208;28;20295;-80
2023/12/23 09:48:49;;;;;;;2.70;2.50;;;;;;;13.83;57.57;93448.06;5027874;28;20630;-79
2023/12/23 09:51:17;;;;;;;2.50;2.30;;;;;;;14.15;57.58;93529.69;5028365;28;20282;-79
2023/12/23 09:53:47;;;;;;;3.53;2.10;;;;;;;14.15;57.84;93546.91;5028066;28;20192;-78
2023/12/23 09:56:16;;;;;;;2.83;2.07;;;;;;;14.04;57.89;93545.66;5032216;28;20242;-79
2023/12/23 09:58:44;;;;;;;2.40;2.20;;;;;;;13.95;58.18;93559.63;5046248;28;20207;-76
2023/12/23 10:01:11;;;;;;;3.43;2.20;;;;;;;13.84;58.57;93566.06;5048790;28;20256;-75
2023/12/23 10:03:38;;;;;;;2.17;2.07;;;;;;;13.77;58.78;93584.00;5050080;28;20187;-75
2023/12/23 10:06:07;;;;;;;2.23;1.90;;;;;;;13.66;58.96;93578.56;5063059;28;20194;-75
2023/12/23 10:08:34;;;;;;;3.23;2.10;;;;;;;13.53;59.24;93569.75;5066042;28;20198;-76
2023/12/23 10:11:00;;;;;;;3.00;2.17;;;;;;;13.47;59.53;93574.81;5044036;28;20386;-79
2023/12/23 10:13:27;;;;;;;1.90;1.80;;;;;;;13.34;59.71;93559.25;5044775;28;20187;-81
2023/12/23 10:15:54;;;;;;;2.47;2.00;;;;;;;13.29;59.58;93596.53;5046760;28;20183;-78
2023/12/23 10:18:21;;;;;;;2.67;2.17;;;;;;;13.32;60.00;93639.06;5047822;28;20245;-77
2023/12/23 10:20:47;;;;;;;2.03;1.93;;;;;;;13.22;59.97;93626.50;5040581;28;20587;-78
2023/12/23 10:23:16;;;;;;;3.47;1.87;;;;;;;13.14;60.36;93634.28;5044699;28;20191;-82
2023/12/23 10:25:42;;;;;;;2.53;2.10;;;;;;;13.15;69.64;93635.06;5048532;28;20241;-78
2023/12/23 10:28:10;;;;;;;3.13;2.47;;;;;;;13.39;72.48;93624.53;5044910;28;20202;-78
2023/12/23 10:30:40;;;;;;;2.80;2.03;;;;;;;13.55;70.63;93654.31;5037710;28;20285;-78
2023/12/23 10:33:08;;;;;;;2.80;2.40;;;;;;;13.53;69.41;93639.09;5044615;28;20264;-78
2023/12/23 10:35:43;;;;;;;2.10;2.00;;;;;;;13.47;68.69;93636.44;5044349;28;20256;-78
2023/12/23 10:38:11;;;;;;;3.33;2.30;;;;;;;13.41;67.90;93642.31;5044335;28;20209;-77
2023/12/23 10:40:40;;;;;;;2.43;1.97;;;;;;;13.34;67.46;93665.31;5044734;28;20298;-75
2023/12/23 10:43:09;;;;;;;1.90;1.80;;;;;;;13.25;66.96;93666.41;5044809;28;20214;-82
2023/12/23 10:45:37;;;;;;;2.70;2.10;;;;;;;12.92;66.45;93628.28;5043428;28;20218;-79
2023/12/23 10:48:06;;;;;;;3.83;1.87;;;;;;;13.08;65.98;93681.16;5045635;28;20195;-80
2023/12/23 10:50:34;;;;;;;2.50;2.00;;;;;;;12.71;65.90;93641.03;5045564;28;20281;-80
2023/12/23 10:53:04;;;;;;;2.10;1.90;;;;;;;12.73;65.50;93662.94;5045604;28;20193;-78
2023/12/23 10:55:32;;;;;;;2.07;1.83;;;;;;;12.58;65.52;93644.19;5049275;28;20191;-80
2023/12/23 10:58:01;;;;;;;1.73;1.57;;;;;;;12.41;65.30;93622.25;5049998;28;20198;-80
2023/12/23 11:00:28;;;;;;;3.00;1.87;;;;;;;12.71;65.17;93684.63;5050143;28;20210;-80
2023/12/23 11:02:58;;;;;;;5.13;1.90;;;;;;;12.62;65.10;93683.91;5050244;28;20209;-75
2023/12/23 11:05:26;;;;;;;1.83;1.73;;;;;;;12.53;64.84;93677.25;5047421;28;20295;-71
2023/12/23 11:07:56;;;;;;;2.10;1.90;;;;;;;12.48;64.65;93659.03;5050116;28;20668;-77
2023/12/23 11:10:25;;;;;;;1.60;1.60;;;;;;;12.64;64.77;93679.38;5049057;28;20194;-78
2023/12/23 11:12:51;;;;;;;1.80;1.70;;;;;;;12.64;64.62;93669.13;5049314;28;20217;-76
2023/12/23 11:15:20;;;;;;;1.80;1.70;;;;;;;12.58;64.47;93664.72;5048675;28;20198;-74
2023/12/23 11:17:47;;;;;;;2.43;2.00;;;;;;;12.59;64.54;93656.03;5049290;28;20230;-78
2023/12/23 11:20:44;;;;;;;2.13;1.93;;;;;;;12.67;64.40;93670.56;5049356;28;20235;-78
2023/12/23 11:23:35;;;;;;;2.53;2.33;;;;;;;12.51;64.23;93649.22;5048922;28;20183;-78
2023/12/23 11:26:03;;;;;;;2.00;1.90;;;;;;;12.68;64.19;93662.69;4967373;28;20693;-80
2023/12/23 11:28:31;;;;;;;2.50;2.00;;;;;;;12.64;64.31;93658.88;4968506;28;20194;-80
2023/12/23 11:31:00;;;;;;;2.27;2.07;;;;;;;12.57;64.01;93642.59;4967328;28;20224;-77
2023/12/23 11:33:29;;;;;;;2.30;2.10;;;;;;;12.56;64.06;93641.00;4965604;28;20197;-79
2023/12/23 11:35:57;;;;;;;2.20;2.00;;;;;;;12.60;63.75;93656.81;4967744;28;20527;-78
2023/12/23 11:38:27;;;;;;;1.80;1.70;;;;;;;12.55;64.28;93652.22;4967359;28;20284;-79